Domov               UVHVVR             MKGP            O straneh              
ZDRAVSTVENO VARSTVO RASTLIN
  MREŽA AGROMET. POSTAJ
 ► PROGNOSTIČNA OBVESTILA
AGROMETEOROLOŠKI PODATKI -
ARSO
OBVLADOVANJE TVEGANJ ZARADI
NEUGODNIH VREMENSKIH RAZMER
  ► NARAVNE NESREČE
  ► SUŠA/MOČA
  ► NAMAKANJE
  ► ŽLED (gozdarstvo)
KARTOGRAFSKI PRIKAZI
SPLETNE POVEZAVE
PROJEKTI IN PUBLIKACIJE

AGROMETEOROLOŠKA MREŽA: VREMENSKE POSTAJE IN FENOLOŠKA OPAZOVANJA

Pregled podatkov za lokacijo Vogrsko, meteorološka postaja 49191

Pregled senzorjev na lokaciji

ID Ime Zadnja
vrednost
Datum
zadnje
spremembe
Tip
senzorja
3641 Temperatura 2 m (°C) 10,3 °C 15.12.2017 20:30 50YA
3642 Relativna vlaga 2 m (% RH) 100 % RH 15.12.2017 20:30 50YA
3643 Omočenost lista (U) 4 U 15.12.2017 20:30 A730WET
3645 Sončno sevanje (W/m2) 56,55 W/m2 15.12.2017 20:30 Pyranometer SP-Lite
3646 Smer vetra (°) 226,07 ° 15.12.2017 20:30 566.2S-130
3647 Hitrost vetra (km/h) 0,04 km/h 15.12.2017 20:30 566.2S-176 (200km/h)
3650 Hitrost vetra (km/h) 4,67 km/h 15.12.2017 20:30 566.2S-176 (200km/h)
3859 Padavine (mm) 0 mm 15.12.2017 20:30 Rain-O-Matic

Pregled podatkov zadnjih 24 ur

Zap.
št.
Datum in čas Vogrsko
Hitrost
vetra
Hitrost
vetra
Omočenost
lista
Padavine Relativna
vlaga
2
m
Smer
vetra
Sončno
sevanje
Temperatura
2
m
0 15.12.2017 20:30 0,04 4,67 4 0 100 226,07 56,55 10,3
1 15.12.2017 20:00 0,04 4,3 4 0 100 163,32 53,25 10,12
2 15.12.2017 19:30 0,04 4,74 7 0 100 64,91 57,92 10,79
3 15.12.2017 19:00 0,29 7,78 4 0 100 8,27 56,4 10,91
4 15.12.2017 18:30 3,04 8,87 9 0 100 249,15 57,31 11,4
5 15.12.2017 18:00 0,29 6,55 9 0 100 144,03 56,06 11,36
6 15.12.2017 17:30 0,9 7,64 6 0,2 100 58,98 58,47 11,58
7 15.12.2017 17:00 0,04 4,6 3 0 100 220,05 53,04 11,65
8 15.12.2017 16:30 2,99 11,88 9 0,4 100 136,58 58,81 12,42
9 15.12.2017 16:00 2,26 9,98 10 0,6 100 188,12 57,5 12,14
10 15.12.2017 15:30 3,47 10,05 9 2 100 120,46 60,43 12,25
11 15.12.2017 15:00 3,13 9,52 9 0,4 100 239,2 66,1 12,69
12 15.12.2017 14:30 3 12,44 9 0,8 100 147,6 69,7 13,27
13 15.12.2017 14:00 4,88 12,5 9 1 100 122,59 68,94 13,04
14 15.12.2017 13:30 9,13 19,02 10 1,8 98,53 128,74 69,95 13,36
15 15.12.2017 13:00 10,39 17,33 1 0 93,75 92,64 75,62 13,8
16 15.12.2017 12:30 6,17 12,27 4 0,2 95,62 96,53 75,9 13,74
17 15.12.2017 12:00 2,53 11,84 9 0,4 89,58 103,97 81,79 14,37
18 15.12.2017 11:30 2,36 16,94 6 0 94,91 229,94 76,91 13,98
19 15.12.2017 11:00 3,92 13,67 1 0 92,87 78,88 77,7 14,18
20 15.12.2017 10:30 4,99 13,55 10 0,2 95,76 338,59 74,43 13,92
21 15.12.2017 10:00 3,42 9,7 10 0 98,96 349,38 67,81 13,13
22 15.12.2017 09:30 0,39 9,6 10 0 100 199,05 66,25 12,34
23 15.12.2017 09:00 1,69 9,63 9 0 100 60,12 63,94 12,11
24 15.12.2017 08:30 0,77 8,31 10 0,2 100 23,66 58,66 11,91
25 15.12.2017 08:00 2,38 10,2 3 0 100 187,02 58,78 11,88
26 15.12.2017 07:30 2,15 10,45 0 0 100 265,68 55,51 11,64
27 15.12.2017 07:00 0,3 10,54 0 0 100 303,28 55,63 11,51
28 15.12.2017 06:30 2,24 10,56 0 0 100 241,21 54,08 11,18
29 15.12.2017 06:00 3,04 11,91 3 0 100 241,54 56,82 11,7
30 15.12.2017 05:30 2,52 9,81 10 0,2 100 125,49 55,66 11,11
31 15.12.2017 05:00 1,71 10,06 10 0 100 241,36 56,28 9,73
32 15.12.2017 04:30 1,1 10,48 10 0,2 100 288,54 55,63 9,45
33 15.12.2017 04:00 0,26 8,43 10 0 100 338,93 56,31 9,3
34 15.12.2017 03:30 0,04 4,38 10 0 100 303,31 57,74 9,25
35 15.12.2017 03:00 0,04 4,4 10 0 100 107,68 55,63 8,98
36 15.12.2017 02:30 0,04 4,37 10 0 100 254,44 57,74 9,1
37 15.12.2017 02:00 0,04 4,38 10 0 100 307,91 58,63 9,1
38 15.12.2017 01:30 0,37 7,29 10 0 100 338,95 54,17 8,84
39 15.12.2017 01:00 0,04 4,39 9 0 100 193,13 8,96
40 15.12.2017 00:30 0,04 4,37 9 0 100 175,79 9,16
41 15.12.2017 00:00 0,04 4,37 9 0 100 293,93 9,16
42 14.12.2017 23:30 0,04 4,38 9 0 100 134,04 9,03
43 14.12.2017 23:00 0,04 4,35 8 0 100 239,8 9,13
44 14.12.2017 22:30 0,04 4,35 8 0 100 282,3 9,2
45 14.12.2017 22:00 0,54 8,88 8 0 100 327,43 9,16
46 14.12.2017 21:30 0,04 4,34 8 0 100 235,01 9,22
47 14.12.2017 21:00 0,04 4,32 7 0 100 237,9 9,12
© 2011 Ministrstvo za kmetijstvo, gozdarstvo in prehrano. Vse pravice pridržane.